Latest Weather Observations for Fort Denison

IDN60901

Issued at 3:52 am EDT Saturday 31 January 2015 (issued every 10 minutes, with the page automatically refreshed every 10 minutes)

About weather observations | Map of Sydney area stations | Latest observations for Sydney area | Other Formats
Station Details ID: 066022 Name: FORT DENISON Lat: -33.86 Lon: 151.23 Height: 5.0 m
Data from the previous 72 hours. | See also: Recent months for locations in New South Wales
Date/Time
EDT
Tmp

°C
App
Tmp
°C
Dew
Point
°C
Rel
Hum
%
Delta-T

°C
Wind Press
QNH
hPa
Press
MSL
hPa
Rain
since
9 am
mm
Dir
 
Spd
km/h
Gust
km/h
Spd
kts
Gust
kts
31/03:30am - - - - - SSW 9 15 5 8 - - -
31/03:00am - - - - - SSW 11 17 6 9 - - -
31/02:30am - - - - - SW 9 11 5 6 - - -
31/02:00am - - - - - SW 11 17 6 9 - - -
31/01:30am - - - - - SW 13 19 7 10 - - -
31/01:00am - - - - - SW 9 13 5 7 - - -
31/12:30am - - - - - SSW 9 17 5 9 - - -
 
Date/Time
EDT
Tmp

°C
App
Tmp
°C
Dew
Point
°C
Rel
Hum
%
Delta-T

°C
Wind Press
QNH
hPa
Press
MSL
hPa
Rain
since
9 am
mm
Dir
 
Spd
km/h
Gust
km/h
Spd
kts
Gust
kts
30/11:30pm - - - - - SSW 13 20 7 11 - - -
30/11:00pm - - - - - SSW 9 19 5 10 - - -
30/10:30pm - - - - - SSW 13 22 7 12 - - -
30/10:00pm - - - - - S 13 22 7 12 - - -
30/09:30pm - - - - - S 15 28 8 15 - - -
30/09:00pm - - - - - S 17 28 9 15 - - -
30/08:30pm - - - - - S 13 24 7 13 - - -
30/08:00pm - - - - - S 19 33 10 18 - - -
30/07:30pm - - - - - S 19 32 10 17 - - -
30/07:00pm - - - - - S 17 24 9 13 - - -
30/06:30pm - - - - - S 22 33 12 18 - - -
30/06:00pm - - - - - S 19 26 10 14 - - -
30/05:30pm - - - - - SSE 20 26 11 14 - - -
30/05:00pm - - - - - SE 19 26 10 14 - - -
30/04:30pm - - - - - SE 19 24 10 13 - - -
30/04:00pm - - - - - SSE 13 22 7 12 - - -
30/03:30pm - - - - - SSE 9 19 5 10 - - -
30/03:00pm - - - - - WSW 17 35 9 19 - - -
30/02:30pm - - - - - WSW 26 43 14 23 - - -
30/02:00pm - - - - - WSW 28 41 15 22 - - -
30/01:46pm - - - - - SW 20 48 11 26 - - -
30/01:30pm - - - - - W 24 39 13 21 - - -
30/01:00pm - - - - - WSW 20 35 11 19 - - -
30/12:30pm - - - - - W 22 37 12 20 - - -
30/12:00pm - - - - - WSW 17 30 9 16 - - -
30/11:30am - - - - - WSW 20 32 11 17 - - -
30/11:00am - - - - - WSW 19 32 10 17 - - -
30/10:30am - - - - - WSW 19 39 10 21 - - -
30/10:00am - - - - - WSW 20 32 11 17 - - -
30/09:30am - - - - - WSW 20 33 11 18 - - -
30/09:00am - - - - - WSW 20 32 11 17 - - -
30/08:30am - - - - - W 24 32 13 17 - - -
30/08:00am - - - - - W 20 28 11 15 - - -
30/07:30am - - - - - W 19 24 10 13 - - -
30/07:00am - - - - - W 19 24 10 13 - - -
30/06:30am - - - - - W 17 22 9 12 - - -
30/06:00am - - - - - W 20 24 11 13 - - -
30/05:30am - - - - - W 19 24 10 13 - - -
30/05:00am - - - - - W 19 24 10 13 - - -
30/04:30am - - - - - W 17 22 9 12 - - -
30/04:00am - - - - - W 17 20 9 11 - - -
30/03:30am - - - - - W 15 19 8 10 - - -
30/03:00am - - - - - W 15 19 8 10 - - -
30/02:30am - - - - - W 17 24 9 13 - - -
30/02:00am - - - - - W 17 24 9 13 - - -
30/01:30am - - - - - W 19 26 10 14 - - -
30/01:00am - - - - - W 17 26 9 14 - - -
30/12:30am - - - - - W 17 24 9 13 - - -
30/12:00am - - - - - WSW 17 26 9 14 - - -
 
Date/Time
EDT
Tmp

°C
App
Tmp
°C
Dew
Point
°C
Rel
Hum
%
Delta-T

°C
Wind Press
QNH
hPa
Press
MSL
hPa
Rain
since
9 am
mm
Dir
 
Spd
km/h
Gust
km/h
Spd
kts
Gust
kts
29/11:30pm - - - - - SW 17 28 9 15 - - -
29/11:00pm - - - - - SSW 17 30 9 16 - - -
29/10:30pm - - - - - SSW 24 35 13 19 - - -
29/10:00pm - - - - - S 28 39 15 21 - - -
29/09:30pm - - - - - SSW 28 44 15 24 - - -
29/09:00pm - - - - - S 32 50 17 27 - - -
29/08:44pm - - - - - S 30 52 16 28 - - -
29/08:30pm - - - - - S 24 41 13 22 - - -
29/08:01pm - - - - - S 30 48 16 26 - - -
29/08:00pm - - - - - S 32 48 17 26 - - -
29/07:30pm - - - - - S 32 50 17 27 - - -
29/07:05pm - - - - - S 30 48 16 26 - - -
29/07:00pm - - - - - S 32 48 17 26 - - -
29/06:31pm - - - - - S 32 50 17 27 - - -
29/06:30pm - - - - - S 32 48 17 26 - - -
29/06:14pm - - - - - SSE 33 52 18 28 - - -
29/06:06pm - - - - - S 32 52 17 28 - - -
29/06:00pm - - - - - S 30 48 16 26 - - -
29/05:30pm - - - - - S 32 54 17 29 - - -
29/05:11pm - - - - - S 33 52 18 28 - - -
29/05:00pm - - - - - S 32 48 17 26 - - -
29/04:30pm - - - - - S 32 54 17 29 - - -
29/04:06pm - - - - - S 30 48 16 26 - - -
29/04:00pm - - - - - S 33 48 18 26 - - -
29/03:42pm - - - - - S 32 50 17 27 - - -
29/03:30pm - - - - - S 35 50 19 27 - - -
29/03:00pm - - - - - S 35 54 19 29 - - -
29/02:30pm - - - - - S 37 56 20 30 - - -
29/02:10pm - - - - - S 32 50 17 27 - - -
29/02:00pm - - - - - S 32 50 17 27 - - -
29/01:32pm - - - - - S 28 50 15 27 - - -
29/01:30pm - - - - - S 24 50 13 27 - - -
29/01:00pm - - - - - S 30 43 16 23 - - -
29/12:41pm - - - - - SSW 28 46 15 25 - - -
29/12:30pm - - - - - S 26 39 14 21 - - -
29/12:19pm - - - - - S 28 46 15 25 - - -
29/12:00pm - - - - - S 26 43 14 23 - - -
29/11:37am - - - - - S 28 46 15 25 - - -
29/11:30am - - - - - S 32 46 17 25 - - -
29/11:27am - - - - - S 28 46 15 25 - - -
29/11:00am - - - - - SSW 28 41 15 22 - - -
29/10:30am - - - - - SSW 28 46 15 25 - - -
29/10:21am - - - - - SSW 28 46 15 25 - - -
29/10:00am - - - - - SSW 22 39 12 21 - - -
29/09:30am - - - - - SSW 24 41 13 22 - - -
29/09:00am - - - - - SSW 17 30 9 16 - - -
29/08:30am - - - - - SW 24 35 13 19 - - -
29/08:00am - - - - - SW 19 32 10 17 - - -
29/07:30am - - - - - WSW 17 24 9 13 - - -
29/07:00am - - - - - W 20 28 11 15 - - -
29/06:30am - - - - - WSW 17 24 9 13 - - -
29/06:00am - - - - - W 20 32 11 17 - - -
29/05:30am - - - - - W 20 28 11 15 - - -
29/05:00am - - - - - W 22 28 12 15 - - -
29/04:30am - - - - - W 20 26 11 14 - - -
29/04:00am - - - - - W 22 33 12 18 - - -
29/03:30am - - - - - W 19 24 10 13 - - -
29/03:00am - - - - - W 20 26 11 14 - - -
29/02:30am - - - - - SW 19 30 10 16 - - -
29/02:00am - - - - - WSW 17 30 9 16 - - -
29/01:30am - - - - - WSW 17 30 9 16 - - -
29/01:00am - - - - - W 19 26 10 14 - - -
29/12:30am - - - - - W 17 24 9 13 - - -
29/12:00am - - - - - W 17 24 9 13 - - -
 
Date/Time
EDT
Tmp

°C
App
Tmp
°C
Dew
Point
°C
Rel
Hum
%
Delta-T

°C
Wind Press
QNH
hPa
Press
MSL
hPa
Rain
since
9 am
mm
Dir
 
Spd
km/h
Gust
km/h
Spd
kts
Gust
kts
28/11:30pm - - - - - W 19 24 10 13 - - -
28/11:00pm - - - - - WSW 19 28 10 15 - - -
28/10:30pm - - - - - WSW 17 28 9 15 - - -
28/10:00pm - - - - - SW 17 28 9 15 - - -
28/09:30pm - - - - - SW 17 32 9 17 - - -
28/09:00pm - - - - - SW 20 35 11 19 - - -
28/08:30pm - - - - - SSW 20 32 11 17 - - -
28/08:00pm - - - - - SSW 17 28 9 15 - - -
28/07:30pm - - - - - SSW 20 32 11 17 - - -
28/07:00pm - - - - - S 26 43 14 23 - - -
28/06:30pm - - - - - SSW 17 24 9 13 - - -
28/06:00pm - - - - - S 6 11 3 6 - - -
28/05:30pm - - - - - S 17 26 9 14 - - -
28/05:00pm - - - - - S 15 24 8 13 - - -
28/04:30pm - - - - - N 6 7 3 4 - - -
28/04:00pm - - - - - SSE 7 15 4 8 - - -
28/03:30pm - - - - - SSE 11 17 6 9 - - -
28/03:00pm - - - - - SSW 6 11 3 6 - - -
28/02:30pm - - - - - SSE 11 28 6 15 - - -
28/02:00pm - - - - - S 9 13 5 7 - - -
28/01:30pm - - - - - SSW 4 7 2 4 - - -
28/01:00pm - - - - - SE 17 22 9 12 - - -
28/12:30pm - - - - - SSE 17 39 9 21 - - -
28/12:00pm - - - - - SSE 19 32 10 17 - - -
28/11:30am - - - - - SSE 13 26 7 14 - - -
28/11:00am - - - - - SSE 11 20 6 11 - - -
28/10:30am - - - - - S 13 22 7 12 - - -
28/10:00am - - - - - S 15 22 8 12 - - -
28/09:30am - - - - - S 11 15 6 8 - - -
28/09:00am - - - - - SSE 17 24 9 13 - - -
28/08:30am - - - - - S 15 22 8 12 - - -
28/08:00am - - - - - SE 13 20 7 11 - - -
28/07:30am - - - - - SW 7 13 4 7 - - -
28/07:00am - - - - - WSW 15 22 8 12 - - -
28/06:30am - - - - - SW 7 11 4 6 - - -
28/06:00am - - - - - SSW 9 15 5 8 - - -
28/05:30am - - - - - SSE 11 19 6 10 - - -
28/05:00am - - - - - SSE 13 20 7 11 - - -
28/04:30am - - - - - SSE 22 30 12 16 - - -
28/04:00am - - - - - SSW 7 13 4 7 - - -

Latest Capital City Observations: Canberra | Sydney | Melbourne | Brisbane | Adelaide | Perth | Hobart | Darwin

Other Formats:

Comma delimited format used in spreadsheet applications
http://www.bom.gov.au/fwo/IDN60901/IDN60901.94769.axf

JavaScript Object Notation format (JSON) in row-major order
http://www.bom.gov.au/fwo/IDN60901/IDN60901.94769.json